Time;durP1;ratioP1;P1;durP2;ratioP2;P2;SDS_P1;SDS_P2;PMS_P1;PMS_P2;Temp;Humidity;BMP_temperature;BMP_pressure;BME280_temperature;BME280_humidity;BME280_pressure;Samples;Min_cycle;Max_cycle;Signal;HPM_P1;HPM_P2
2023/03/03 00:01:35;;;;;;;48.90;29.15;;;2.40;88.60;;;;;;5008807;28;20526;-78
2023/03/03 00:04:00;;;;;;;47.08;27.33;;;2.30;88.70;;;;;;4988147;28;20022;-78
2023/03/03 00:06:26;;;;;;;52.83;28.17;;;2.30;88.60;;;;;;4997651;28;20030;-78
2023/03/03 00:08:52;;;;;;;49.38;28.08;;;2.40;88.70;;;;;;5000199;28;20032;-78
2023/03/03 00:11:18;;;;;;;46.42;27.70;;;2.30;88.70;;;;;;4989366;28;20409;-78
2023/03/03 00:13:52;;;;;;;49.28;29.58;;;2.30;88.80;;;;;;5003101;28;20355;-78
2023/03/03 00:16:24;;;;;;;46.42;26.63;;;2.30;88.70;;;;;;5013397;28;20506;-80
2023/03/03 00:18:51;;;;;;;48.42;29.15;;;2.30;88.70;;;;;;4994084;28;20038;-78
2023/03/03 00:21:39;;;;;;;49.95;28.35;;;2.30;88.70;;;;;;4996773;28;20454;-78
2023/03/03 00:24:11;;;;;;;46.65;28.52;;;2.30;88.80;;;;;;4998154;28;20030;-79
2023/03/03 00:26:38;;;;;;;46.78;27.23;;;2.20;88.90;;;;;;5006392;28;20042;-79
2023/03/03 00:29:35;;;;;;;42.28;26.83;;;2.20;88.90;;;;;;4991296;28;20028;-78
2023/03/03 00:32:26;;;;;;;47.28;26.95;;;2.20;88.80;;;;;;4995844;28;20126;-79
2023/03/03 00:34:54;;;;;;;49.38;28.13;;;2.20;89.00;;;;;;4993445;28;20033;-78
2023/03/03 00:37:28;;;;;;;47.40;27.58;;;2.20;89.00;;;;;;5013721;28;20409;-77
2023/03/03 00:40:18;;;;;;;49.38;28.13;;;2.10;88.90;;;;;;4993596;28;20121;-78
2023/03/03 00:42:49;;;;;;;48.85;27.58;;;2.10;89.20;;;;;;4997817;28;20475;-78
2023/03/03 00:45:23;;;;;;;47.00;29.67;;;2.10;89.30;;;;;;4996512;28;20026;-79
2023/03/03 00:47:49;;;;;;;51.58;29.67;;;2.10;89.40;;;;;;5001581;28;20042;-78
2023/03/03 00:50:28;;;;;;;51.63;28.67;;;2.10;89.40;;;;;;4999972;28;20049;-78
2023/03/03 00:53:05;;;;;;;51.40;29.58;;;2.10;89.40;;;;;;4990508;28;20057;-78
2023/03/03 00:55:32;;;;;;;52.65;30.20;;;2.10;89.50;;;;;;4993138;28;20050;-77
2023/03/03 00:57:58;;;;;;;53.70;30.67;;;2.10;89.50;;;;;;4991511;28;20044;-77
2023/03/03 01:00:23;;;;;;;51.75;28.35;;;2.10;89.60;;;;;;4998831;28;20030;-78
2023/03/03 01:02:50;;;;;;;55.70;31.13;;;2.10;89.70;;;;;;4992382;28;20057;-78
2023/03/03 01:05:17;;;;;;;52.35;29.67;;;2.10;89.80;;;;;;4992559;28;20034;-78
2023/03/03 01:07:42;;;;;;;51.63;29.42;;;2.10;89.90;;;;;;4994156;28;20041;-76
2023/03/03 01:10:09;;;;;;;55.28;29.80;;;2.10;90.00;;;;;;4993046;28;20030;-80
2023/03/03 01:12:35;;;;;;;57.63;30.58;;;2.10;90.00;;;;;;4995391;28;20031;-80
2023/03/03 01:15:01;;;;;;;58.00;31.75;;;2.10;90.10;;;;;;4994190;28;20041;-79
2023/03/03 01:17:27;;;;;;;57.22;33.55;;;2.10;90.20;;;;;;4992388;28;20431;-78
2023/03/03 01:19:53;;;;;;;56.35;32.42;;;2.10;90.20;;;;;;4993063;28;20084;-77
2023/03/03 01:22:19;;;;;;;57.00;31.48;;;2.10;90.20;;;;;;4989116;28;20042;-78
2023/03/03 01:24:44;;;;;;;54.88;31.00;;;2.00;90.20;;;;;;4996525;28;20872;-77
2023/03/03 01:27:10;;;;;;;53.15;30.90;;;2.10;90.20;;;;;;4990206;28;20038;-77
2023/03/03 01:29:36;;;;;;;58.08;32.38;;;2.00;90.10;;;;;;5010700;28;20034;-77
2023/03/03 01:32:01;;;;;;;53.97;31.70;;;2.00;90.10;;;;;;4993636;28;20327;-76
2023/03/03 01:34:27;;;;;;;57.10;31.52;;;1.90;90.30;;;;;;4994016;28;20077;-77
2023/03/03 01:36:53;;;;;;;63.63;35.22;;;1.90;90.30;;;;;;4991667;28;20371;-76
2023/03/03 01:39:18;;;;;;;63.10;35.13;;;1.90;90.60;;;;;;4995307;28;20383;-78
2023/03/03 01:41:44;;;;;;;62.15;34.97;;;1.90;90.80;;;;;;5009078;28;20038;-77
2023/03/03 01:44:16;;;;;;;64.75;36.88;;;1.90;90.90;;;;;;4992123;28;20105;-78
2023/03/03 01:47:11;;;;;;;68.28;37.38;;;1.90;91.00;;;;;;4993837;28;20037;-78
2023/03/03 01:50:02;;;;;;;67.93;37.15;;;1.90;91.00;;;;;;4994761;28;20035;-80
2023/03/03 01:52:38;;;;;;;73.93;40.00;;;1.80;91.30;;;;;;4992481;28;20038;-77
2023/03/03 01:55:26;;;;;;;72.72;39.33;;;1.80;91.40;;;;;;4994620;28;20135;-79
2023/03/03 01:57:57;;;;;;;70.38;38.55;;;1.80;91.50;;;;;;4992721;28;20040;-79
2023/03/03 02:00:23;;;;;;;75.35;40.60;;;1.90;91.60;;;;;;4995079;28;20471;-78
2023/03/03 02:02:50;;;;;;;77.90;40.65;;;1.90;91.70;;;;;;4988194;28;20046;-78
2023/03/03 02:05:16;;;;;;;77.10;40.97;;;1.80;91.90;;;;;;4989599;28;20027;-77
2023/03/03 02:07:43;;;;;;;80.63;40.25;;;1.90;91.90;;;;;;4989686;28;20184;-78
2023/03/03 02:10:09;;;;;;;76.80;41.05;;;1.80;92.00;;;;;;4993536;28;20453;-81
2023/03/03 02:12:41;;;;;;;79.57;41.85;;;1.80;92.00;;;;;;4996028;28;20046;-77
2023/03/03 02:15:18;;;;;;;80.55;41.20;;;1.80;92.10;;;;;;4995642;28;20149;-78
2023/03/03 02:17:45;;;;;;;70.18;40.30;;;1.80;92.10;;;;;;4993625;28;20806;-77
2023/03/03 02:20:32;;;;;;;83.55;44.47;;;1.80;92.10;;;;;;4995848;28;20022;-78
2023/03/03 02:23:24;;;;;;;80.85;42.67;;;1.80;92.20;;;;;;4986816;28;20043;-77
2023/03/03 02:25:55;;;;;;;76.22;42.88;;;1.80;92.30;;;;;;4993214;28;20096;-79
2023/03/03 02:28:28;;;;;;;79.75;42.38;;;1.70;92.30;;;;;;4990538;28;20022;-78
2023/03/03 02:30:56;;;;;;;78.95;42.17;;;1.70;92.40;;;;;;4998179;28;20053;-79
2023/03/03 02:33:22;;;;;;;78.80;41.70;;;1.70;92.40;;;;;;4987941;28;20041;-78
2023/03/03 02:35:48;;;;;;;80.78;42.70;;;1.70;92.40;;;;;;4992551;28;20462;-80
2023/03/03 02:38:33;;;;;;;80.00;41.42;;;1.60;92.40;;;;;;5000824;28;20033;-77
2023/03/03 02:41:17;;;;;;;82.40;43.38;;;1.60;92.50;;;;;;4993326;28;20042;-76
2023/03/03 02:43:52;;;;;;;74.75;40.53;;;1.60;92.60;;;;;;4993312;28;20042;-77
2023/03/03 02:46:18;;;;;;;83.32;42.13;;;1.60;92.60;;;;;;4992552;28;20100;-77
2023/03/03 02:48:43;;;;;;;83.13;44.63;;;1.60;92.60;;;;;;4987340;28;20046;-76
2023/03/03 02:51:09;;;;;;;82.20;43.92;;;1.60;92.70;;;;;;4997266;28;20046;-80
2023/03/03 02:53:35;;;;;;;80.57;44.80;;;1.60;92.80;;;;;;5010097;28;20018;-77
2023/03/03 02:56:03;;;;;;;80.05;43.28;;;1.60;92.90;;;;;;4992742;28;20052;-76
2023/03/03 02:58:29;;;;;;;77.82;42.55;;;1.60;92.90;;;;;;4990584;28;20084;-76
2023/03/03 03:00:55;;;;;;;85.70;43.88;;;1.60;93.00;;;;;;4990418;28;20049;-77
2023/03/03 03:03:21;;;;;;;88.22;45.00;;;1.60;93.00;;;;;;4997372;28;20030;-78
2023/03/03 03:05:46;;;;;;;84.53;41.88;;;1.60;93.00;;;;;;4996260;28;20380;-77
2023/03/03 03:08:12;;;;;;;79.00;41.33;;;1.50;93.00;;;;;;4992060;28;20061;-77
2023/03/03 03:10:38;;;;;;;82.03;43.75;;;1.60;93.00;;;;;;4988687;28;20029;-78
2023/03/03 03:13:04;;;;;;;85.28;43.42;;;1.60;93.10;;;;;;4994527;28;20022;-78
2023/03/03 03:15:29;;;;;;;84.80;44.03;;;1.50;93.00;;;;;;4991562;28;20038;-79
2023/03/03 03:17:55;;;;;;;83.03;43.00;;;1.50;93.10;;;;;;4993257;28;20017;-80
2023/03/03 03:20:21;;;;;;;85.15;41.63;;;1.50;93.10;;;;;;4991119;28;20034;-76
2023/03/03 03:22:46;;;;;;;84.47;42.25;;;1.50;93.20;;;;;;4993290;28;20045;-77
2023/03/03 03:25:12;;;;;;;90.35;44.38;;;1.50;93.20;;;;;;4992283;28;20017;-76
2023/03/03 03:27:38;;;;;;;78.28;41.58;;;1.50;93.20;;;;;;4983870;28;20038;-78
2023/03/03 03:30:04;;;;;;;83.15;43.40;;;1.50;93.20;;;;;;4981793;28;20133;-80
2023/03/03 03:32:30;;;;;;;78.45;41.10;;;1.40;93.30;;;;;;4990275;28;20097;-79
2023/03/03 03:34:55;;;;;;;73.38;38.72;;;1.40;93.20;;;;;;4995351;28;20026;-77
2023/03/03 03:37:21;;;;;;;77.03;40.25;;;1.40;93.20;;;;;;4995269;28;20092;-78
2023/03/03 03:39:47;;;;;;;76.75;39.50;;;1.30;93.20;;;;;;4990513;28;20155;-76
2023/03/03 03:42:12;;;;;;;77.10;40.22;;;1.30;93.20;;;;;;4992473;28;20042;-75
2023/03/03 03:44:38;;;;;;;76.70;39.53;;;1.30;93.20;;;;;;4991929;28;20102;-78
2023/03/03 03:47:04;;;;;;;74.03;39.38;;;1.20;93.10;;;;;;4994441;28;20029;-77
2023/03/03 03:49:29;;;;;;;68.32;38.25;;;1.20;93.20;;;;;;4991142;28;20498;-78
2023/03/03 03:51:55;;;;;;;71.43;38.95;;;1.20;93.20;;;;;;4987347;28;20113;-77
2023/03/03 03:54:21;;;;;;;71.60;38.53;;;1.10;93.20;;;;;;4995360;28;20022;-76
2023/03/03 03:56:46;;;;;;;74.25;39.50;;;1.10;93.30;;;;;;4989484;28;20050;-76
2023/03/03 03:59:12;;;;;;;70.72;39.03;;;1.20;93.30;;;;;;4992860;28;20027;-77
2023/03/03 04:01:38;;;;;;;69.25;37.50;;;1.10;93.20;;;;;;4988679;28;20050;-79
2023/03/03 04:04:03;;;;;;;65.82;36.15;;;1.10;93.20;;;;;;4987291;28;20033;-77
2023/03/03 04:06:29;;;;;;;65.20;38.25;;;1.10;93.20;;;;;;4991163;28;20038;-76
2023/03/03 04:08:56;;;;;;;65.15;36.78;;;1.10;93.10;;;;;;4993017;28;20025;-80
2023/03/03 04:11:21;;;;;;;69.15;36.67;;;1.10;93.10;;;;;;4990385;28;20125;-77
2023/03/03 04:13:47;;;;;;;65.07;35.72;;;1.10;93.10;;;;;;4986498;28;20110;-77
2023/03/03 04:16:13;;;;;;;63.58;35.03;;;1.00;93.10;;;;;;4990538;28;20054;-78
2023/03/03 04:18:40;;;;;;;60.10;35.58;;;1.00;93.10;;;;;;4989098;28;20111;-77
2023/03/03 04:21:05;;;;;;;66.50;37.70;;;1.00;93.10;;;;;;4991803;28;20077;-76
2023/03/03 04:23:31;;;;;;;64.82;36.42;;;0.90;93.10;;;;;;4995773;28;20535;-76
2023/03/03 04:25:57;;;;;;;63.70;36.13;;;1.00;93.20;;;;;;5010464;28;20421;-76
2023/03/03 04:28:24;;;;;;;57.90;32.63;;;1.00;93.20;;;;;;4996863;28;20080;-77
2023/03/03 04:30:49;;;;;;;57.08;33.15;;;0.90;93.10;;;;;;5004222;28;20693;-76
2023/03/03 04:33:15;;;;;;;60.13;35.05;;;0.90;93.10;;;;;;4991748;28;20026;-78
2023/03/03 04:35:40;;;;;;;59.30;35.55;;;0.90;93.10;;;;;;4983976;28;20392;-76
2023/03/03 04:38:06;;;;;;;57.20;35.47;;;0.90;93.10;;;;;;4994314;28;20037;-79
2023/03/03 04:40:32;;;;;;;56.05;34.38;;;0.90;93.10;;;;;;4989518;28;20030;-77
2023/03/03 04:42:58;;;;;;;60.20;36.83;;;0.90;93.20;;;;;;4989181;28;20030;-79
2023/03/03 04:45:23;;;;;;;57.88;35.67;;;0.90;93.20;;;;;;4988978;28;20030;-77
2023/03/03 04:47:49;;;;;;;58.67;37.03;;;0.90;93.20;;;;;;4988959;28;20031;-77
2023/03/03 04:50:15;;;;;;;56.70;35.95;;;1.00;93.20;;;;;;4987779;28;20524;-78
2023/03/03 04:52:41;;;;;;;57.55;34.70;;;1.00;93.20;;;;;;4991137;28;20461;-79
2023/03/03 04:55:07;;;;;;;58.58;37.03;;;1.00;93.20;;;;;;4986451;28;20046;-77
2023/03/03 04:57:33;;;;;;;56.15;35.70;;;1.00;93.20;;;;;;4988931;28;20483;-78
2023/03/03 04:59:58;;;;;;;56.13;35.75;;;1.00;93.20;;;;;;5000791;28;20099;-78
2023/03/03 05:02:24;;;;;;;54.92;34.55;;;1.00;93.10;;;;;;5000252;28;20109;-78
2023/03/03 05:04:49;;;;;;;56.80;35.28;;;0.90;93.10;;;;;;4994190;28;20257;-80
2023/03/03 05:07:16;;;;;;;56.30;35.45;;;0.90;93.20;;;;;;4994295;28;20589;-79
2023/03/03 05:09:42;;;;;;;59.30;35.70;;;0.90;93.20;;;;;;4991177;28;20029;-77
2023/03/03 05:12:07;;;;;;;63.45;36.10;;;0.90;93.20;;;;;;4989866;28;20047;-75
2023/03/03 05:14:33;;;;;;;55.85;35.65;;;0.90;93.20;;;;;;4988066;28;20030;-77
2023/03/03 05:16:59;;;;;;;54.95;35.13;;;0.90;93.10;;;;;;4995149;28;20043;-75
2023/03/03 05:19:25;;;;;;;53.38;34.13;;;0.90;93.20;;;;;;4995681;28;20052;-77
2023/03/03 05:21:50;;;;;;;57.70;36.90;;;0.90;93.20;;;;;;4996107;28;20076;-78
2023/03/03 05:24:17;;;;;;;53.88;35.20;;;0.90;93.20;;;;;;4989444;28;20498;-79
2023/03/03 05:26:42;;;;;;;54.33;34.78;;;0.80;93.20;;;;;;4992372;28;20040;-76
2023/03/03 05:29:08;;;;;;;51.40;33.92;;;0.80;93.20;;;;;;4998188;28;20014;-79
2023/03/03 05:31:34;;;;;;;52.55;33.15;;;0.80;93.20;;;;;;4993148;28;20036;-77
2023/03/03 05:34:00;;;;;;;48.30;32.75;;;0.80;93.20;;;;;;4994100;28;20133;-77
2023/03/03 05:36:25;;;;;;;52.72;34.42;;;0.80;93.20;;;;;;4995730;28;20394;-81
2023/03/03 05:38:51;;;;;;;54.42;33.70;;;0.80;93.20;;;;;;4988351;28;20065;-78
2023/03/03 05:41:17;;;;;;;53.80;32.88;;;0.70;93.20;;;;;;4992429;28;20062;-78
2023/03/03 05:43:43;;;;;;;52.47;34.00;;;0.80;93.30;;;;;;4989028;28;20042;-78
2023/03/03 05:46:09;;;;;;;51.60;33.35;;;0.80;93.20;;;;;;4992278;28;20058;-80
2023/03/03 05:48:35;;;;;;;49.97;33.35;;;0.70;93.20;;;;;;4995530;28;20483;-78
2023/03/03 05:51:01;;;;;;;52.58;33.10;;;0.70;93.20;;;;;;4996648;28;20045;-78
2023/03/03 05:53:28;;;;;;;50.25;32.22;;;0.70;93.20;;;;;;4994322;28;20518;-76
2023/03/03 05:55:53;;;;;;;53.35;33.88;;;0.80;93.30;;;;;;4993704;28;20054;-77
2023/03/03 05:58:19;;;;;;;49.80;32.65;;;0.80;93.30;;;;;;4995020;28;20481;-77
2023/03/03 06:00:45;;;;;;;53.33;34.10;;;0.80;93.20;;;;;;4990316;28;20070;-77
2023/03/03 06:03:11;;;;;;;53.83;34.95;;;0.80;93.30;;;;;;4995254;28;20093;-79
2023/03/03 06:05:36;;;;;;;56.15;33.90;;;0.70;93.30;;;;;;4990769;28;20030;-80
2023/03/03 06:08:02;;;;;;;58.80;34.10;;;0.80;93.30;;;;;;4992305;28;20029;-76
2023/03/03 06:10:28;;;;;;;52.35;33.58;;;0.80;93.30;;;;;;4996503;28;20141;-75
2023/03/03 06:12:54;;;;;;;48.05;32.92;;;0.80;93.30;;;;;;4993547;28;20054;-77
2023/03/03 06:15:23;;;;;;;50.92;31.67;;;0.80;93.40;;;;;;4993579;28;20030;-78
2023/03/03 06:17:49;;;;;;;51.40;32.95;;;0.80;93.40;;;;;;4999800;28;20041;-78
2023/03/03 06:20:15;;;;;;;50.88;32.22;;;0.80;93.40;;;;;;4997186;28;20402;-76
2023/03/03 06:22:40;;;;;;;53.33;34.88;;;0.90;93.50;;;;;;4988449;28;20041;-79
2023/03/03 06:25:06;;;;;;;55.85;33.10;;;0.90;93.40;;;;;;4991593;28;20038;-78
2023/03/03 06:27:32;;;;;;;56.70;34.75;;;0.90;93.50;;;;;;4987825;28;20137;-75
2023/03/03 06:29:58;;;;;;;52.83;32.85;;;0.90;93.50;;;;;;4991789;28;20126;-78
2023/03/03 06:32:24;;;;;;;52.85;33.33;;;1.00;93.50;;;;;;4993677;28;20033;-75
2023/03/03 06:34:49;;;;;;;54.65;33.67;;;1.00;93.50;;;;;;4993754;28;20080;-77
2023/03/03 06:37:15;;;;;;;55.10;32.97;;;1.10;93.50;;;;;;4998839;28;20291;-75
2023/03/03 06:39:41;;;;;;;56.92;34.60;;;1.10;93.50;;;;;;4990715;28;20557;-77
2023/03/03 06:42:08;;;;;;;52.83;34.13;;;1.10;93.40;;;;;;4993505;28;20116;-77
2023/03/03 06:44:34;;;;;;;59.97;36.63;;;1.10;93.40;;;;;;4998462;28;20022;-76
2023/03/03 06:47:00;;;;;;;54.22;35.08;;;1.10;93.40;;;;;;4993897;28;20415;-77
2023/03/03 06:49:25;;;;;;;59.63;36.67;;;1.10;93.40;;;;;;5000988;28;20212;-77
2023/03/03 06:51:51;;;;;;;60.17;37.42;;;1.10;93.30;;;;;;4996672;28;20034;-79
2023/03/03 06:54:26;;;;;;;62.45;38.60;;;1.10;93.30;;;;;;4999256;28;20040;-80
2023/03/03 06:56:56;;;;;;;61.97;38.72;;;1.20;93.40;;;;;;4990621;28;20126;-77
2023/03/03 06:59:22;;;;;;;55.80;35.75;;;1.30;93.40;;;;;;4997219;28;20245;-78
2023/03/03 07:01:49;;;;;;;59.17;37.30;;;1.40;93.50;;;;;;4990696;28;20048;-79
2023/03/03 07:04:21;;;;;;;65.25;40.83;;;1.40;93.50;;;;;;4999598;28;20021;-80
2023/03/03 07:06:47;;;;;;;75.38;43.38;;;1.60;93.40;;;;;;4991513;28;20038;-78
2023/03/03 07:09:33;;;;;;;74.25;45.85;;;1.60;93.30;;;;;;5001264;28;20041;-79
2023/03/03 07:12:11;;;;;;;74.32;45.47;;;1.70;93.20;;;;;;4993912;28;20409;-80
2023/03/03 07:14:42;;;;;;;70.95;44.33;;;1.70;93.00;;;;;;4990429;28;20033;-79
2023/03/03 07:17:17;;;;;;;75.55;46.08;;;1.80;92.90;;;;;;4994601;28;20045;-87
2023/03/03 07:19:43;;;;;;;72.30;43.85;;;1.80;92.70;;;;;;5008240;28;20085;-81
2023/03/03 07:22:20;;;;;;;73.47;44.00;;;1.80;92.60;;;;;;5007297;28;20073;-82
2023/03/03 07:24:50;;;;;;;67.15;41.90;;;1.80;92.50;;;;;;5007647;28;20034;-81
2023/03/03 07:27:19;;;;;;;72.85;45.10;;;1.90;92.50;;;;;;5010459;28;20395;-81
2023/03/03 07:29:50;;;;;;;67.82;43.40;;;1.90;92.30;;;;;;5006667;28;20034;-77
2023/03/03 07:32:22;;;;;;;68.22;42.40;;;2.00;92.30;;;;;;5003310;28;20513;-83
2023/03/03 07:34:50;;;;;;;69.47;42.80;;;2.10;92.20;;;;;;5018354;28;20030;-77
2023/03/03 07:37:37;;;;;;;69.68;43.72;;;2.00;91.90;;;;;;5025187;28;20036;-77
2023/03/03 07:40:25;;;;;;;82.32;48.88;;;2.00;91.50;;;;;;5020891;28;20058;-76
2023/03/03 07:42:51;;;;;;;84.28;48.75;;;1.90;91.10;;;;;;5020346;28;20046;-84
2023/03/03 07:45:37;;;;;;;82.22;47.72;;;1.90;90.90;;;;;;5006431;28;20092;-88
2023/03/03 07:48:28;;;;;;;82.15;47.35;;;1.90;90.80;;;;;;5021423;28;20051;-82
2023/03/03 07:50:54;;;;;;;84.75;46.65;;;1.90;90.70;;;;;;5008521;28;20096;-85
2023/03/03 07:53:33;;;;;;;94.93;53.92;;;2.10;90.70;;;;;;5010426;28;20010;-76
2023/03/03 07:56:00;;;;;;;207.80;126.65;;;1.90;90.20;;;;;;5018746;28;20046;-83
2023/03/03 07:58:40;;;;;;;163.50;100.18;;;1.90;90.30;;;;;;5009322;28;20077;-76
2023/03/03 08:01:34;;;;;;;148.02;83.05;;;1.80;90.20;;;;;;4996617;28;20044;-80
2023/03/03 08:03:59;;;;;;;128.82;71.30;;;1.80;90.30;;;;;;4993791;28;20365;-81
2023/03/03 08:06:35;;;;;;;112.18;61.83;;;1.90;90.50;;;;;;4992532;28;20062;-80
2023/03/03 08:09:09;;;;;;;120.93;62.58;;;1.80;90.30;;;;;;5001269;28;20027;-77
2023/03/03 08:11:55;;;;;;;120.53;61.97;;;1.90;90.40;;;;;;4995193;28;20077;-78
2023/03/03 08:14:30;;;;;;;116.03;62.22;;;1.90;90.20;;;;;;4993996;28;20362;-80
2023/03/03 08:16:57;;;;;;;122.85;62.90;;;1.90;90.40;;;;;;5001226;28;20124;-79
2023/03/03 08:19:23;;;;;;;119.63;63.88;;;2.00;90.50;;;;;;4992735;28;20142;-78
2023/03/03 08:21:49;;;;;;;125.38;64.10;;;2.00;90.50;;;;;;4993045;28;20070;-82
2023/03/03 08:24:15;;;;;;;126.88;67.57;;;2.00;90.40;;;;;;5001634;28;20576;-80
2023/03/03 08:26:41;;;;;;;128.05;65.43;;;2.00;90.20;;;;;;5002363;28;20390;-85
2023/03/03 08:29:07;;;;;;;127.90;67.78;;;1.90;90.20;;;;;;5001409;28;20227;-84
2023/03/03 08:31:33;;;;;;;131.82;64.07;;;1.90;90.30;;;;;;5001148;28;21067;-82
2023/03/03 08:33:59;;;;;;;127.97;63.70;;;1.90;90.40;;;;;;4997484;28;20034;-81
2023/03/03 08:36:24;;;;;;;124.80;63.42;;;1.90;90.50;;;;;;5000421;28;20043;-81
2023/03/03 08:38:50;;;;;;;130.20;63.95;;;2.00;90.40;;;;;;5007043;28;20543;-77
2023/03/03 08:41:16;;;;;;;128.73;63.13;;;2.00;90.40;;;;;;5002121;28;20053;-81
2023/03/03 08:43:44;;;;;;;126.90;62.13;;;2.00;90.10;;;;;;4986836;28;20153;-79
2023/03/03 08:46:10;;;;;;;106.50;55.28;;;2.10;90.10;;;;;;4991908;28;20604;-82
2023/03/03 08:48:36;;;;;;;105.47;52.10;;;2.10;89.90;;;;;;5009199;28;20113;-85
2023/03/03 08:51:03;;;;;;;99.70;52.95;;;2.10;89.80;;;;;;5006929;28;20098;-80
2023/03/03 08:53:29;;;;;;;103.05;53.28;;;2.20;90.00;;;;;;4997939;28;20161;-79
2023/03/03 08:55:55;;;;;;;111.80;58.40;;;2.20;89.80;;;;;;4994250;28;20070;-79
2023/03/03 08:58:21;;;;;;;110.50;58.38;;;2.10;89.50;;;;;;5009290;28;20025;-84
2023/03/03 09:00:47;;;;;;;108.93;57.75;;;2.20;89.60;;;;;;4998156;28;20033;-83
2023/03/03 09:03:13;;;;;;;111.00;58.33;;;2.20;89.70;;;;;;4982757;28;20601;-84
2023/03/03 09:05:39;;;;;;;105.03;55.58;;;2.40;89.80;;;;;;4984297;28;20029;-85
2023/03/03 09:08:07;;;;;;;103.68;56.20;;;2.30;89.40;;;;;;5006902;28;20014;-83
2023/03/03 09:10:34;;;;;;;101.38;54.42;;;2.30;89.70;;;;;;5004811;28;20581;-79
2023/03/03 09:13:06;;;;;;;104.25;56.70;;;2.30;89.50;;;;;;5002319;28;20663;-85
2023/03/03 09:15:35;;;;;;;94.95;50.92;;;2.30;89.80;;;;;;5005207;28;20080;-83
2023/03/03 09:18:24;;;;;;;103.40;55.13;;;2.30;89.70;;;;;;5005147;28;20049;-81
2023/03/03 09:20:52;;;;;;;103.25;56.22;;;2.40;89.70;;;;;;5002599;28;20064;-84
2023/03/03 09:23:34;;;;;;;103.50;57.10;;;2.50;89.60;;;;;;5006303;28;20430;-77
2023/03/03 09:26:31;;;;;;;97.30;55.38;;;2.60;89.40;;;;;;5001671;28;20042;-81
2023/03/03 09:29:22;;;;;;;100.88;53.30;;;2.70;89.30;;;;;;4999906;28;20109;-83
2023/03/03 09:31:52;;;;;;;101.55;57.95;;;2.70;88.90;;;;;;5001879;28;20478;-80
2023/03/03 09:34:33;;;;;;;100.97;57.97;;;2.70;88.80;;;;;;5006842;28;20030;-84
2023/03/03 09:36:59;;;;;;;91.07;53.13;;;2.80;89.00;;;;;;5002287;28;20045;-82
2023/03/03 09:39:30;;;;;;;93.78;52.53;;;2.90;88.70;;;;;;5004570;28;20022;-79
2023/03/03 09:42:09;;;;;;;92.03;50.65;;;3.10;88.70;;;;;;5015123;28;20101;-79
2023/03/03 09:44:35;;;;;;;89.00;51.13;;;3.00;88.20;;;;;;5016875;28;20113;-78
2023/03/03 09:47:16;;;;;;;74.18;45.97;;;3.10;88.20;;;;;;5009672;28;20038;-84
2023/03/03 09:49:47;;;;;;;60.35;37.95;;;3.10;87.60;;;;;;5000616;28;20026;-81
2023/03/03 09:52:36;;;;;;;62.45;39.70;;;3.10;87.40;;;;;;5006255;28;20049;-83
2023/03/03 09:55:33;;;;;;;73.68;42.33;;;3.10;87.50;;;;;;5016432;28;20120;-83
2023/03/03 09:58:18;;;;;;;68.05;41.30;;;3.20;87.40;;;;;;4998110;28;20034;-84
2023/03/03 10:00:50;;;;;;;59.15;35.28;;;3.40;87.10;;;;;;5020796;28;20034;-77
2023/03/03 10:03:19;;;;;;;41.85;26.33;;;3.40;86.60;;;;;;5002650;28;20491;-83
2023/03/03 10:06:10;;;;;;;40.20;26.70;;;3.50;85.90;;;;;;5006322;28;20018;-86
2023/03/03 10:09:05;;;;;;;41.65;24.15;;;3.50;86.10;;;;;;4998615;28;20030;-86
2023/03/03 10:11:40;;;;;;;39.20;23.70;;;3.40;85.40;;;;;;5005363;28;20090;-84
2023/03/03 10:14:21;;;;;;;37.80;25.30;;;3.50;85.90;;;;;;5002832;28;20027;-83
2023/03/03 10:16:56;;;;;;;34.95;21.08;;;3.60;85.60;;;;;;5001895;28;20062;-86
2023/03/03 10:19:39;;;;;;;36.63;22.67;;;3.60;85.60;;;;;;5019971;28;20038;-82
2023/03/03 10:22:19;;;;;;;31.92;20.52;;;3.60;85.60;;;;;;4987573;28;20399;-84
2023/03/03 10:25:10;;;;;;;36.72;21.83;;;3.80;85.50;;;;;;4986868;28;20109;-83
2023/03/03 10:27:48;;;;;;;29.90;19.38;;;4.00;85.20;;;;;;4993722;28;20586;-78
2023/03/03 10:30:46;;;;;;;34.90;22.55;;;3.90;84.10;;;;;;4996683;28;20049;-83
2023/03/03 10:33:43;;;;;;;32.50;21.25;;;3.90;85.10;;;;;;4972158;28;20048;-85
2023/03/03 10:36:15;;;;;;;29.85;19.35;;;4.00;84.70;;;;;;4986794;28;20042;-84
2023/03/03 10:38:55;;;;;;;31.88;18.30;;;4.10;84.80;;;;;;4978905;28;20031;-81
2023/03/03 10:41:48;;;;;;;28.52;17.15;;;4.10;83.70;;;;;;4988595;28;20074;-81
2023/03/03 10:44:32;;;;;;;28.70;17.45;;;4.30;83.50;;;;;;4990249;28;20037;-81
2023/03/03 10:47:37;;;;;;;26.83;16.63;;;4.30;82.20;;;;;;4979615;28;20074;-80
2023/03/03 10:50:17;;;;;;;28.43;16.97;;;4.50;82.00;;;;;;4997850;28;20038;-77
2023/03/03 10:53:01;;;;;;;27.88;16.23;;;4.60;82.00;;;;;;4982450;28;20039;-83
2023/03/03 10:55:49;;;;;;;31.17;18.23;;;4.30;82.00;;;;;;4988940;28;20098;-83
2023/03/03 10:58:48;;;;;;;33.60;19.45;;;4.30;82.60;;;;;;4988449;28;20038;-80
2023/03/03 11:01:34;;;;;;;31.00;18.40;;;4.20;82.40;;;;;;4980746;28;20499;-84
2023/03/03 11:04:03;;;;;;;28.50;17.52;;;4.30;82.30;;;;;;4984171;28;20025;-81
2023/03/03 11:06:46;;;;;;;32.10;19.67;;;4.50;82.10;;;;;;4978600;28;20034;-81
2023/03/03 11:09:37;;;;;;;32.17;20.20;;;4.60;82.10;;;;;;5006882;28;20026;-79
2023/03/03 11:12:24;;;;;;;33.85;22.70;;;4.60;81.80;;;;;;5004222;28;20455;-82
2023/03/03 11:15:26;;;;;;;39.30;25.58;;;4.40;81.70;;;;;;4999220;28;20549;-79
2023/03/03 11:18:03;;;;;;;43.70;27.83;;;4.40;81.80;;;;;;4997062;28;20475;-79
2023/03/03 11:21:05;;;;;;;46.38;29.42;;;4.60;82.10;;;;;;5000154;28;20030;-84
2023/03/03 11:23:49;;;;;;;40.70;27.90;;;4.60;81.50;;;;;;4995705;28;20049;-82
2023/03/03 11:26:27;;;;;;;37.55;25.13;;;4.60;81.80;;;;;;4999837;28;20479;-82
2023/03/03 11:29:10;;;;;;;41.10;27.30;;;4.60;81.20;;;;;;4999608;28;20446;-81
2023/03/03 11:31:47;;;;;;;45.75;32.25;;;4.70;81.60;;;;;;5002075;28;20041;-82
2023/03/03 11:34:26;;;;;;;43.25;27.77;;;4.90;81.60;;;;;;5001628;28;20372;-83
2023/03/03 11:37:00;;;;;;;42.78;27.50;;;4.90;80.80;;;;;;4998791;28;20098;-82
2023/03/03 11:39:26;;;;;;;42.25;29.55;;;4.80;80.20;;;;;;4996648;28;20026;-79
2023/03/03 11:42:03;;;;;;;45.97;33.00;;;4.70;80.20;;;;;;5002413;28;20475;-82
2023/03/03 11:44:42;;;;;;;50.65;34.95;;;4.90;80.50;;;;;;5004257;28;20037;-79
2023/03/03 11:47:17;;;;;;;56.22;38.10;;;4.90;80.90;;;;;;4996928;28;20049;-80
2023/03/03 11:49:53;;;;;;;;;;;5.20;80.00;;;;;;5001363;28;20398;-82
2023/03/03 11:52:40;;;;;;;52.38;36.60;;;5.00;79.70;;;;;;5002534;28;20031;-80
2023/03/03 11:55:18;;;;;;;49.45;35.40;;;5.10;80.10;;;;;;5012788;28;20065;-83
2023/03/03 11:57:59;;;;;;;45.97;33.22;;;5.30;80.10;;;;;;5002058;28;20070;-82
2023/03/03 12:00:28;;;;;;;53.13;35.50;;;5.40;79.10;;;;;;5008208;28;20025;-82
2023/03/03 12:03:24;;;;;;;62.15;42.40;;;5.60;78.60;;;;;;4994192;28;20046;-82
2023/03/03 12:06:08;;;;;;;72.75;47.90;;;5.70;78.90;;;;;;5016227;28;20062;-81
2023/03/03 12:08:53;;;;;;;49.13;32.63;;;5.90;79.00;;;;;;5002621;28;20038;-82
2023/03/03 12:11:29;;;;;;;54.42;37.88;;;6.10;77.20;;;;;;5015572;28;20402;-83
2023/03/03 12:14:10;;;;;;;63.00;42.90;;;6.10;78.20;;;;;;4999468;28;20030;-83
2023/03/03 12:16:55;;;;;;;55.65;40.25;;;6.30;77.90;;;;;;4993349;28;20038;-83
2023/03/03 12:19:21;;;;;;;51.63;38.55;;;6.40;77.60;;;;;;5004572;28;20029;-84
2023/03/03 12:22:28;;;;;;;51.70;37.00;;;6.40;77.00;;;;;;4996775;28;20104;-81
2023/03/03 12:25:03;;;;;;;50.47;33.67;;;6.50;75.90;;;;;;5000138;28;20032;-84
2023/03/03 12:27:41;;;;;;;43.10;30.38;;;6.40;76.40;;;;;;4993291;28;20112;-82
2023/03/03 12:30:15;;;;;;;44.03;31.35;;;6.30;75.90;;;;;;5004308;28;20014;-82
2023/03/03 12:32:59;;;;;;;55.55;37.67;;;6.30;76.70;;;;;;5006208;28;20092;-84
2023/03/03 12:35:41;;;;;;;53.50;36.00;;;6.20;76.10;;;;;;5001843;28;20018;-82
2023/03/03 12:38:29;;;;;;;64.97;45.90;;;6.00;76.70;;;;;;4998292;28;20038;-84
2023/03/03 12:41:21;;;;;;;55.67;40.03;;;6.10;77.70;;;;;;4999226;28;20097;-84
2023/03/03 12:44:09;;;;;;;53.78;38.25;;;6.10;76.90;;;;;;5009790;28;20120;-83
2023/03/03 12:46:54;;;;;;;54.45;37.63;;;6.10;76.60;;;;;;4999848;28;20038;-83
2023/03/03 12:49:21;;;;;;;58.35;38.75;;;6.20;76.90;;;;;;5006165;28;20136;-82
2023/03/03 12:51:57;;;;;;;59.72;39.53;;;6.20;76.00;;;;;;5003799;28;20115;-82
2023/03/03 12:54:53;;;;;;;59.75;40.05;;;6.10;76.20;;;;;;5003534;28;20045;-83
2023/03/03 12:57:32;;;;;;;51.30;33.70;;;6.10;77.20;;;;;;5007886;28;20172;-84
2023/03/03 13:00:37;;;;;;;47.15;33.97;;;6.10;76.50;;;;;;5000382;28;20034;-81
2023/03/03 13:03:15;;;;;;;49.25;32.03;;;6.40;75.90;;;;;;4996837;28;20065;-82